Time,TemperatureC,DewpointC,PressurehPa,WindDirection,WindDirectionDegrees,WindSpeedKMH,WindSpeedGustKMH,Humidity,HourlyPrecipMM,Conditions,Clouds,dailyrainMM,SolarRadiationWatts/m^2,UVIndex,SoftwareType,DateUTC
2020-04-05 00:03:29,5.8,3.4,1027.5,ENE,71,5.4,5.9,63,0.0,,,0.0,2,0,n/a,2020-04-04T22:03:29Z
2020-04-05 00:09:29,6.1,3.3,1027.5,SE,139,6.5,10.9,63,0.0,,,0.0,2,0,n/a,2020-04-04T22:09:29Z
2020-04-05 00:12:30,5.9,3.2,1027.5,SE,141,4,5.6,62.7,0.0,,,0.0,2,0,n/a,2020-04-04T22:12:30Z
2020-04-05 00:18:29,5.8,3.2,1027.5,SE,126,5.5,8.4,62.8,0.0,,,0.0,2,0,n/a,2020-04-04T22:18:29Z
2020-04-05 00:24:29,5.7,3.2,1027.8,SE,139,7.3,8.4,62.9,0.0,,,0.0,2,0,n/a,2020-04-04T22:24:29Z
2020-04-05 00:27:29,5.7,3.2,1027.5,NE,47,11.2,12.5,63.5,0.0,,,0.0,2,0,n/a,2020-04-04T22:27:29Z
2020-04-05 00:33:30,5.9,3.1,1027.8,East,94,8.8,9.7,63.2,0.0,,,0.0,0,0,n/a,2020-04-04T22:33:30Z
2020-04-05 00:39:30,5.6,3.2,1027.8,SE,135,3,4.9,63.1,0.0,,,0.0,2,0,n/a,2020-04-04T22:39:30Z
2020-04-05 00:42:29,5.6,3.2,1027.8,East,94,3.3,4,63.3,0.0,,,0.0,2,0,n/a,2020-04-04T22:42:29Z
2020-04-05 00:48:30,5.7,3.2,1028.0,SE,135,2.6,4.2,63.3,0.0,,,0.0,2,0,n/a,2020-04-04T22:48:30Z
2020-04-05 00:54:29,5.5,3.2,1027.8,SE,141,4,7.9,62.9,0.0,,,0.0,2,0,n/a,2020-04-04T22:54:29Z
2020-04-05 00:57:30,5.7,3.2,1027.8,SE,145,1.3,1.5,63.9,0.0,,,0.0,0,0,n/a,2020-04-04T22:57:30Z
2020-04-05 01:03:30,5,3.2,1027.8,SE,133,2.3,2.6,63.6,0.0,,,0.0,0,0,n/a,2020-04-04T23:03:30Z
2020-04-05 01:09:30,5.1,3.3,1028.0,SSE,147,1.9,2.6,64.3,0.0,,,0.0,0,0,n/a,2020-04-04T23:09:30Z
2020-04-05 01:12:28,4.7,3.2,1027.8,ESE,105,5.5,7.3,63.8,0.0,,,0.0,2,0,n/a,2020-04-04T23:12:28Z
2020-04-05 01:18:30,5.1,3.2,1028.0,SSE,157,1.6,2,64,0.0,,,0.0,2,0,n/a,2020-04-04T23:18:30Z
2020-04-05 01:24:29,4.8,3.2,1028.0,SE,135,3.2,4.3,64.6,0.0,,,0.0,2,0,n/a,2020-04-04T23:24:29Z
2020-04-05 01:27:30,4.7,3.1,1028.0,SSE,155,2.3,2.6,64.5,0.0,,,0.0,0,0,n/a,2020-04-04T23:27:30Z
2020-04-05 01:33:29,4.5,3.2,1028.0,SSE,157,0.6,1.3,64.6,0.0,,,0.0,0,0,n/a,2020-04-04T23:33:29Z
2020-04-05 01:39:30,4.9,3.2,1028.0,SSE,157,0.4,1.4,65.4,0.0,,,0.0,0,0,n/a,2020-04-04T23:39:30Z
2020-04-05 01:42:29,4.2,3.1,1028.0,SSW,202,0.4,0.7,64.7,0.0,,,0.0,2,0,n/a,2020-04-04T23:42:29Z
2020-04-05 01:48:28,4.6,3.1,1028.0,SSE,162,1.1,2.5,65.5,0.0,,,0.0,2,0,n/a,2020-04-04T23:48:28Z
2020-04-05 01:54:30,4.8,3.1,1028.0,SSE,163,1.7,2.6,65.8,0.0,,,0.0,2,0,n/a,2020-04-04T23:54:30Z
2020-04-05 01:57:30,4.7,3.2,1028.0,SE,124,2.3,2.5,66.9,0.0,,,0.0,0,0,n/a,2020-04-04T23:57:30Z
2020-04-05 02:03:29,4.6,3.2,1028.0,SSE,147,1.4,2,66.4,0.0,,,0.0,0,0,n/a,2020-04-05T00:03:29Z
2020-04-05 02:09:30,4.6,3.1,1028.0,North,0,0.4,1.1,66.4,0.0,,,0.0,2,0,n/a,2020-04-05T00:09:30Z
2020-04-05 02:12:29,4.6,3.2,1028.0,SE,135,0,0,66.9,0.0,,,0.0,0,0,n/a,2020-04-05T00:12:29Z
2020-04-05 02:18:30,4.5,3.2,1028.0,ENE,57,2.4,3.1,67,0.0,,,0.0,2,0,n/a,2020-04-05T00:18:30Z
2020-04-05 02:24:28,4.7,3.1,1028.0,SE,143,1.6,2.8,67.2,0.0,,,0.0,2,0,n/a,2020-04-05T00:24:28Z
2020-04-05 02:27:30,4.3,3.1,1028.0,SE,135,0,0,67.3,0.0,,,0.0,0,0,n/a,2020-04-05T00:27:30Z
2020-04-05 02:33:30,4.2,3.1,1028.0,SSE,157,0,0,67.7,0.0,,,0.0,0,0,n/a,2020-04-05T00:33:30Z
2020-04-05 02:39:29,4,3.2,1028.0,SE,140,1.8,2,68.4,0.0,,,0.0,2,0,n/a,2020-04-05T00:39:29Z
2020-04-05 02:42:30,4.1,3.2,1027.8,SSE,157,0,0,68.7,0.0,,,0.0,0,0,n/a,2020-04-05T00:42:30Z
2020-04-05 02:48:30,3.8,3.1,1028.0,SSE,157,0.4,1.2,68.6,0.0,,,0.0,2,0,n/a,2020-04-05T00:48:30Z
2020-04-05 02:54:29,3.7,3.1,1027.8,SE,135,1,2.6,69,0.0,,,0.0,0,0,n/a,2020-04-05T00:54:29Z
2020-04-05 02:57:25,3.4,3,1027.8,North,0,2.4,2.4,69.4,0.0,,,0.0,0,0,n/a,2020-04-05T00:57:25Z
2020-04-05 03:03:29,3.2,2.9,1027.5,SE,146,0.7,1.5,69.3,0.0,,,0.0,2,0,n/a,2020-04-05T01:03:29Z
2020-04-05 03:09:30,2.8,3,1027.5,East,79,2.5,3.9,70.2,0.0,,,0.0,0,0,n/a,2020-04-05T01:09:30Z
2020-04-05 03:12:29,3.2,2.8,1027.5,SSE,157,1.1,1.5,70.4,0.0,,,0.0,2,0,n/a,2020-04-05T01:12:29Z
2020-04-05 03:18:30,3.1,2.9,1027.8,SSE,157,0.7,1.5,70.6,0.0,,,0.0,2,0,n/a,2020-04-05T01:18:30Z
2020-04-05 03:24:28,3,2.8,1027.5,SSE,157,0,0,70.7,0.0,,,0.0,2,0,n/a,2020-04-05T01:24:28Z
2020-04-05 03:27:25,2.5,2.9,1027.5,SSE,157,0,0,70.7,0.0,,,0.0,0,0,n/a,2020-04-05T01:27:25Z
2020-04-05 03:33:30,2.9,2.8,1027.8,SE,135,0,0,70.9,0.0,,,0.0,2,0,n/a,2020-04-05T01:33:30Z
2020-04-05 03:39:30,2.6,2.8,1027.8,SSE,157,0,0,71.3,0.0,,,0.0,0,0,n/a,2020-04-05T01:39:30Z
2020-04-05 03:42:30,2.8,2.8,1027.5,SE,135,0,0,71.3,0.0,,,0.0,2,0,n/a,2020-04-05T01:42:30Z
2020-04-05 03:48:29,2.5,2.8,1027.5,SE,135,0.7,1.4,72,0.0,,,0.0,0,0,n/a,2020-04-05T01:48:29Z
2020-04-05 03:54:30,2.8,2.8,1027.5,SE,135,0,0,72.2,0.0,,,0.0,0,0,n/a,2020-04-05T01:54:30Z
2020-04-05 03:57:28,2.8,2.7,1027.5,SSE,157,0,0,72.1,0.0,,,0.0,2,0,n/a,2020-04-05T01:57:28Z
2020-04-05 04:03:29,2.6,2.7,1027.5,SSE,157,0,0,72.3,0.0,,,0.0,2,0,n/a,2020-04-05T02:03:29Z
2020-04-05 04:09:30,3,2.8,1027.5,SSE,157,0,0,73,0.0,,,0.0,2,0,n/a,2020-04-05T02:09:30Z
2020-04-05 04:12:29,2.9,2.9,1027.2,SSE,157,0,0,72.8,0.0,,,0.0,0,0,n/a,2020-04-05T02:12:29Z
2020-04-05 04:18:30,2.9,2.8,1027.5,South,180,0,0,72.8,0.0,,,0.0,2,0,n/a,2020-04-05T02:18:30Z
2020-04-05 04:24:30,3,2.8,1027.2,SE,135,0,0,72.7,0.0,,,0.0,2,0,n/a,2020-04-05T02:24:30Z
2020-04-05 04:27:30,2.9,2.9,1027.5,SSE,157,0,0,73,0.0,,,0.0,0,0,n/a,2020-04-05T02:27:30Z
2020-04-05 04:33:30,2.8,2.8,1027.5,SE,135,0,0,72.5,0.0,,,0.0,0,0,n/a,2020-04-05T02:33:30Z
2020-04-05 04:39:29,1.9,2.5,1027.5,SE,135,0,0,71.8,0.0,,,0.0,2,0,n/a,2020-04-05T02:39:29Z
2020-04-05 04:42:30,1.6,2.5,1027.5,SE,135,0,0,71.7,0.0,,,0.0,2,0,n/a,2020-04-05T02:42:30Z
2020-04-05 04:48:30,1.6,2.4,1027.5,SE,135,0.2,0.7,72.4,0.0,,,0.0,0,0,n/a,2020-04-05T02:48:30Z
2020-04-05 04:54:29,1.4,2.4,1027.5,SE,135,0.9,2,73.1,0.0,,,0.0,2,0,n/a,2020-04-05T02:54:29Z
2020-04-05 04:57:30,1.9,2.5,1027.5,ESE,106,1.5,1.9,74.5,0.0,,,0.0,2,0,n/a,2020-04-05T02:57:30Z
2020-04-05 05:03:29,2.3,2.7,1027.5,NE,47,0.8,1.9,74.9,0.0,,,0.0,2,0,n/a,2020-04-05T03:03:29Z
2020-04-05 05:09:30,2.3,2.6,1027.5,SSE,157,0,0,74.4,0.0,,,0.0,2,0,n/a,2020-04-05T03:09:30Z
2020-04-05 05:12:29,2.6,2.6,1027.5,SE,135,1.5,1.9,74.8,0.0,,,0.0,2,0,n/a,2020-04-05T03:12:29Z
2020-04-05 05:18:30,2.3,2.6,1027.5,SE,135,0.7,1.4,74.7,0.0,,,0.0,0,0,n/a,2020-04-05T03:18:30Z
2020-04-05 05:24:30,2.1,2.6,1027.5,SSE,157,0.4,1.1,74.6,0.0,,,0.0,0,0,n/a,2020-04-05T03:24:30Z
2020-04-05 05:27:28,1.8,2.5,1027.5,SE,135,0,0,74.3,0.0,,,0.0,0,0,n/a,2020-04-05T03:27:28Z
2020-04-05 05:33:30,1.8,2.5,1027.5,SE,135,0,0,75,0.0,,,0.0,0,0,n/a,2020-04-05T03:33:30Z
2020-04-05 05:39:28,1.8,2.4,1027.5,North,0,0.1,0.4,75.2,0.0,,,0.0,2,0,n/a,2020-04-05T03:39:28Z
2020-04-05 05:42:30,2,2.4,1027.5,SSE,157,0,0,75.2,0.0,,,0.0,2,0,n/a,2020-04-05T03:42:30Z
2020-04-05 05:48:29,2,2.5,1027.5,SE,146,1.3,2.5,75.7,0.0,,,0.0,2,0,n/a,2020-04-05T03:48:29Z
2020-04-05 05:54:29,2.5,2.6,1027.5,South,180,0,0,75.8,0.0,,,0.0,2,0,n/a,2020-04-05T03:54:29Z
2020-04-05 05:57:29,2.6,2.6,1027.5,South,169,0.7,0.8,76,0.0,,,0.0,0,0,n/a,2020-04-05T03:57:29Z
2020-04-05 06:03:29,2.5,2.5,1027.5,SSE,157,0,0,75.6,0.0,,,0.0,2,0,n/a,2020-04-05T04:03:29Z
2020-04-05 06:09:28,2.5,2.5,1027.5,SSE,157,0,0,75.1,0.0,,,0.0,2,0,n/a,2020-04-05T04:09:28Z
2020-04-05 06:12:29,2.6,2.6,1027.8,SE,135,0,0,75.7,0.0,,,0.0,0,0,n/a,2020-04-05T04:12:29Z
2020-04-05 06:18:30,2.5,2.5,1027.8,South,180,0,0,75.5,0.0,,,0.0,2,0,n/a,2020-04-05T04:18:30Z
2020-04-05 06:24:30,2.6,2.5,1027.8,SSE,157,0.2,0.8,75.9,0.0,,,0.0,2,0,n/a,2020-04-05T04:24:30Z
2020-04-05 06:27:29,2.5,2.6,1027.8,SSE,157,0,0,76,0.0,,,0.0,2,0,n/a,2020-04-05T04:27:29Z
2020-04-05 06:33:30,2.6,2.6,1028.0,South,180,0,0,76,0.0,,,0.0,4,0,n/a,2020-04-05T04:33:30Z
2020-04-05 06:39:30,2.2,2.5,1028.0,South,180,0,0,75.3,0.0,,,0.0,4,0,n/a,2020-04-05T04:39:30Z
2020-04-05 06:42:29,1.9,2.4,1028.0,SE,135,0,0,74.8,0.0,,,0.0,6,0,n/a,2020-04-05T04:42:29Z
2020-04-05 06:48:29,2.8,2.4,1028.0,SSE,157,0.5,1.3,75.8,0.0,,,0.0,8,0,n/a,2020-04-05T04:48:29Z
2020-04-05 06:54:29,3.1,2.7,1028.0,SSE,157,0.4,1.7,76.2,0.0,,,0.0,14,0,n/a,2020-04-05T04:54:29Z
2020-04-05 06:57:30,2.6,2.6,1028.0,South,180,0,0,75.4,0.0,,,0.0,16,0,n/a,2020-04-05T04:57:30Z
2020-04-05 07:03:29,2.8,2.6,1028.0,South,180,0,0,75.4,0.0,,,0.0,20,0,n/a,2020-04-05T05:03:29Z
2020-04-05 07:09:28,3,2.8,1028.0,SSE,157,0,0,76.1,0.0,,,0.0,80,0,n/a,2020-04-05T05:09:28Z
2020-04-05 07:12:28,3.3,3,1028.3,SSE,157,0,0,76.1,0.0,,,0.0,94,0,n/a,2020-04-05T05:12:28Z
2020-04-05 07:18:30,3.6,3.1,1028.3,SSE,167,0.6,1.3,75.3,0.0,,,0.0,126,0,n/a,2020-04-05T05:18:30Z
2020-04-05 07:24:28,4,3.3,1028.5,North,0,1.1,1.4,73.9,0.0,,,0.0,152,0.1,n/a,2020-04-05T05:24:28Z
2020-04-05 07:27:29,4.3,3.3,1028.3,SSW,202,1.5,2,72.5,0.0,,,0.0,166,0.1,n/a,2020-04-05T05:27:29Z
2020-04-05 07:33:30,4.6,3.4,1028.5,SSE,157,0,0,71.1,0.0,,,0.0,164,0.1,n/a,2020-04-05T05:33:30Z
2020-04-05 07:39:28,5,3.6,1028.5,South,180,0,0,69.8,0.0,,,0.0,210,0.1,n/a,2020-04-05T05:39:28Z
2020-04-05 07:42:30,5.4,3.6,1028.5,South,180,0,0,68.8,0.0,,,0.0,116,0.2,n/a,2020-04-05T05:42:30Z
2020-04-05 07:48:30,5.8,3.8,1028.5,NNE,27,1.2,1.9,68.2,0.0,,,0.0,158,0.2,n/a,2020-04-05T05:48:30Z
2020-04-05 07:54:29,6.3,4,1028.5,SSE,168,1,2,67.3,0.0,,,0.0,126,0.2,n/a,2020-04-05T05:54:29Z
2020-04-05 07:57:30,6.8,3.9,1028.5,SSE,157,1.2,1.3,66,0.0,,,0.0,116,0.2,n/a,2020-04-05T05:57:30Z
2020-04-05 08:03:29,7,4.1,1028.5,ENE,72,0.6,1.2,66.2,0.0,,,0.0,132,0.2,n/a,2020-04-05T06:03:29Z
2020-04-05 08:09:28,7.5,4.3,1028.5,NE,46,1.8,2.6,65.7,0.0,,,0.0,148,0.3,n/a,2020-04-05T06:09:28Z
2020-04-05 08:12:30,7.7,4.3,1028.5,South,180,1,1.3,65.5,0.0,,,0.0,194,0.3,n/a,2020-04-05T06:12:30Z
2020-04-05 08:18:29,8,4.3,1028.5,SE,143,5.4,7.9,65.3,0.0,,,0.0,240,0.3,n/a,2020-04-05T06:18:29Z
2020-04-05 08:24:29,8.2,4.6,1028.5,SE,135,3.4,4.3,66.1,0.0,,,0.0,318,0.4,n/a,2020-04-05T06:24:29Z
2020-04-05 08:27:30,8.3,4.3,1028.5,SE,135,7.2,8.2,65.3,0.0,,,0.0,202,0.4,n/a,2020-04-05T06:27:30Z
2020-04-05 08:33:29,8.6,4.7,1028.5,SE,135,5.8,7.9,66,0.0,,,0.0,216,0.4,n/a,2020-04-05T06:33:29Z
2020-04-05 08:39:29,8.7,4.6,1028.5,ESE,107,3.5,3.9,64.4,0.0,,,0.0,132,0.4,n/a,2020-04-05T06:39:29Z
2020-04-05 08:42:30,9,4.9,1028.5,ESE,112,6.1,7.1,65.2,0.0,,,0.0,112,0.4,n/a,2020-04-05T06:42:30Z
2020-04-05 08:48:30,9.3,4.9,1028.5,SE,135,5.6,9.1,64.7,0.0,,,0.0,126,0.4,n/a,2020-04-05T06:48:30Z
2020-04-05 08:54:28,9.6,4.9,1028.5,SE,135,7.8,9.8,64.1,0.0,,,0.0,140,0.4,n/a,2020-04-05T06:54:28Z
2020-04-05 08:57:30,9.6,4.7,1028.5,SE,135,7.6,7.8,63.5,0.0,,,0.0,74,0.4,n/a,2020-04-05T06:57:30Z